Arnold, California
Current Conditions -  °F | °C
As of 2:55 PM on Thursday 27 Nov 2014 (Local Time) from KO22 Reporting Station
Clear Clear  
Wind Chill: 72°   Ceiling: Unl
Heat Index: 72°   Visibility: 10mi
Dew Point: 50°   Wind: 3mph
Humidity: 46%   Direction: 250°WSW
Pressure: 30.1"   Gusts: NA
Location:  38.23°N, 120.37°W
Report Text: KO22 272255Z AUTO 25003KT 10SM CLR 22/10 A3010 RMK AO1
Loading
Personal Weather Stations






























Interactive Weather Map New forecast layout! Learn more

10-Day Weather Forecast

Advertisements
Track Severe Weather on mobile